sensor_id;sensor_type;location;lat;lon;timestamp;temperature;humidity
9800;DHT22;4939;52.00085300;4.17406100;2023-05-07T00:00:33;14.60;99.90
9800;DHT22;4939;52.00085300;4.17406100;2023-05-07T00:02:59;14.60;99.90
9800;DHT22;4939;52.00085300;4.17406100;2023-05-07T00:05:25;14.60;99.90
9800;DHT22;4939;52.00085300;4.17406100;2023-05-07T00:10:18;14.50;99.90
9800;DHT22;4939;52.00085300;4.17406100;2023-05-07T00:12:44;14.60;99.90
9800;DHT22;4939;52.00085300;4.17406100;2023-05-07T00:15:10;14.60;99.90
9800;DHT22;4939;52.00085300;4.17406100;2023-05-07T00:17:36;14.60;99.90
9800;DHT22;4939;52.00085300;4.17406100;2023-05-07T00:20:08;14.60;99.90
9800;DHT22;4939;52.00085300;4.17406100;2023-05-07T00:22:34;14.60;99.90
9800;DHT22;4939;52.00085300;4.17406100;2023-05-07T00:25:00;14.60;99.90
9800;DHT22;4939;52.00085300;4.17406100;2023-05-07T00:27:25;14.50;99.90
9800;DHT22;4939;52.00085300;4.17406100;2023-05-07T00:29:51;14.60;99.90
9800;DHT22;4939;52.00085300;4.17406100;2023-05-07T00:32:17;14.60;99.90
9800;DHT22;4939;52.00085300;4.17406100;2023-05-07T00:34:43;14.60;99.90
9800;DHT22;4939;52.00085300;4.17406100;2023-05-07T00:37:09;14.60;99.90
9800;DHT22;4939;52.00085300;4.17406100;2023-05-07T00:39:35;14.60;99.90
9800;DHT22;4939;52.00085300;4.17406100;2023-05-07T00:44:29;14.50;99.90
9800;DHT22;4939;52.00085300;4.17406100;2023-05-07T00:46:57;14.60;99.90
9800;DHT22;4939;52.00085300;4.17406100;2023-05-07T00:49:29;14.50;99.90
9800;DHT22;4939;52.00085300;4.17406100;2023-05-07T00:52:00;14.50;99.90
9800;DHT22;4939;52.00085300;4.17406100;2023-05-07T00:56:52;14.50;99.90
9800;DHT22;4939;52.00085300;4.17406100;2023-05-07T01:01:44;14.40;99.90
9800;DHT22;4939;52.00085300;4.17406100;2023-05-07T01:04:09;14.40;99.90
9800;DHT22;4939;52.00085300;4.17406100;2023-05-07T01:06:35;14.40;99.90
9800;DHT22;4939;52.00085300;4.17406100;2023-05-07T01:09:01;14.40;99.90
9800;DHT22;4939;52.00085300;4.17406100;2023-05-07T01:11:27;14.40;99.90
9800;DHT22;4939;52.00085300;4.17406100;2023-05-07T01:13:53;14.40;99.90
9800;DHT22;4939;52.00085300;4.17406100;2023-05-07T01:16:19;14.30;99.90
9800;DHT22;4939;52.00085300;4.17406100;2023-05-07T01:18:45;14.30;99.90
9800;DHT22;4939;52.00085300;4.17406100;2023-05-07T01:21:15;17.00;99.90
9800;DHT22;4939;52.00085300;4.17406100;2023-05-07T01:23:43;14.20;99.90
9800;DHT22;4939;52.00085300;4.17406100;2023-05-07T01:26:09;14.20;99.90
9800;DHT22;4939;52.00085300;4.17406100;2023-05-07T01:31:03;14.10;99.90
9800;DHT22;4939;52.00085300;4.17406100;2023-05-07T01:33:33;14.00;99.90
9800;DHT22;4939;52.00085300;4.17406100;2023-05-07T01:35:59;13.90;99.90
9800;DHT22;4939;52.00085300;4.17406100;2023-05-07T01:38:29;13.90;99.90
9800;DHT22;4939;52.00085300;4.17406100;2023-05-07T01:40:56;14.00;99.90
9800;DHT22;4939;52.00085300;4.17406100;2023-05-07T01:43:22;13.90;99.90
9800;DHT22;4939;52.00085300;4.17406100;2023-05-07T01:45:49;13.90;99.90
9800;DHT22;4939;52.00085300;4.17406100;2023-05-07T01:48:15;14.00;99.90
9800;DHT22;4939;52.00085300;4.17406100;2023-05-07T01:50:44;13.90;99.90
9800;DHT22;4939;52.00085300;4.17406100;2023-05-07T01:53:10;13.90;99.90
9800;DHT22;4939;52.00085300;4.17406100;2023-05-07T01:55:36;13.90;99.90
9800;DHT22;4939;52.00085300;4.17406100;2023-05-07T01:58:03;13.90;99.90
9800;DHT22;4939;52.00085300;4.17406100;2023-05-07T02:00:28;13.90;99.90
9800;DHT22;4939;52.00085300;4.17406100;2023-05-07T02:05:20;14.00;99.90
9800;DHT22;4939;52.00085300;4.17406100;2023-05-07T02:07:46;14.00;99.90
9800;DHT22;4939;52.00085300;4.17406100;2023-05-07T02:10:12;14.00;99.90
9800;DHT22;4939;52.00085300;4.17406100;2023-05-07T02:12:37;14.00;99.90
9800;DHT22;4939;52.00085300;4.17406100;2023-05-07T02:15:10;14.00;99.90
9800;DHT22;4939;52.00085300;4.17406100;2023-05-07T02:17:39;14.00;99.90
9800;DHT22;4939;52.00085300;4.17406100;2023-05-07T02:20:36;14.10;99.90
9800;DHT22;4939;52.00085300;4.17406100;2023-05-07T02:25:28;14.10;99.90
9800;DHT22;4939;52.00085300;4.17406100;2023-05-07T02:27:54;14.10;99.90
9800;DHT22;4939;52.00085300;4.17406100;2023-05-07T02:32:50;14.10;99.90
9800;DHT22;4939;52.00085300;4.17406100;2023-05-07T02:35:16;14.20;99.90
9800;DHT22;4939;52.00085300;4.17406100;2023-05-07T02:40:08;14.10;99.90
9800;DHT22;4939;52.00085300;4.17406100;2023-05-07T02:42:35;14.20;99.90
9800;DHT22;4939;52.00085300;4.17406100;2023-05-07T02:45:01;14.10;99.90
9800;DHT22;4939;52.00085300;4.17406100;2023-05-07T02:47:26;14.20;99.90
9800;DHT22;4939;52.00085300;4.17406100;2023-05-07T02:49:54;14.20;99.90
9800;DHT22;4939;52.00085300;4.17406100;2023-05-07T02:52:20;14.20;99.90
9800;DHT22;4939;52.00085300;4.17406100;2023-05-07T02:54:46;14.20;99.90
9800;DHT22;4939;52.00085300;4.17406100;2023-05-07T02:57:12;14.30;99.90
9800;DHT22;4939;52.00085300;4.17406100;2023-05-07T02:59:37;14.30;99.90
9800;DHT22;4939;52.00085300;4.17406100;2023-05-07T03:02:03;14.30;99.90
9800;DHT22;4939;52.00085300;4.17406100;2023-05-07T03:04:29;14.30;99.90
9800;DHT22;4939;52.00085300;4.17406100;2023-05-07T03:06:54;14.20;99.90
9800;DHT22;4939;52.00085300;4.17406100;2023-05-07T03:09:20;14.30;99.90
9800;DHT22;4939;52.00085300;4.17406100;2023-05-07T03:11:46;14.30;99.90
9800;DHT22;4939;52.00085300;4.17406100;2023-05-07T03:14:12;14.30;99.90
9800;DHT22;4939;52.00085300;4.17406100;2023-05-07T03:16:38;14.30;99.90
9800;DHT22;4939;52.00085300;4.17406100;2023-05-07T03:19:04;14.30;99.90
9800;DHT22;4939;52.00085300;4.17406100;2023-05-07T03:21:30;14.30;99.90
9800;DHT22;4939;52.00085300;4.17406100;2023-05-07T03:23:56;14.30;99.90
9800;DHT22;4939;52.00085300;4.17406100;2023-05-07T03:26:22;14.30;99.90
9800;DHT22;4939;52.00085300;4.17406100;2023-05-07T03:28:47;14.30;99.90
9800;DHT22;4939;52.00085300;4.17406100;2023-05-07T03:33:53;14.30;99.90
9800;DHT22;4939;52.00085300;4.17406100;2023-05-07T03:36:23;14.30;99.90
9800;DHT22;4939;52.00085300;4.17406100;2023-05-07T03:38:49;14.30;99.90
9800;DHT22;4939;52.00085300;4.17406100;2023-05-07T03:41:15;14.20;99.90
9800;DHT22;4939;52.00085300;4.17406100;2023-05-07T03:43:41;14.20;99.90
9800;DHT22;4939;52.00085300;4.17406100;2023-05-07T03:46:07;14.20;99.90
9800;DHT22;4939;52.00085300;4.17406100;2023-05-07T03:48:32;14.20;99.90
9800;DHT22;4939;52.00085300;4.17406100;2023-05-07T03:50:59;14.20;99.90
9800;DHT22;4939;52.00085300;4.17406100;2023-05-07T03:53:25;14.20;99.90
9800;DHT22;4939;52.00085300;4.17406100;2023-05-07T03:55:51;14.20;99.90
9800;DHT22;4939;52.00085300;4.17406100;2023-05-07T03:58:16;14.20;99.90
9800;DHT22;4939;52.00085300;4.17406100;2023-05-07T04:00:42;14.20;99.90
9800;DHT22;4939;52.00085300;4.17406100;2023-05-07T04:03:08;14.20;99.90
9800;DHT22;4939;52.00085300;4.17406100;2023-05-07T04:05:34;14.20;99.90
9800;DHT22;4939;52.00085300;4.17406100;2023-05-07T04:08:00;14.30;99.90
9800;DHT22;4939;52.00085300;4.17406100;2023-05-07T04:10:26;14.30;99.90
9800;DHT22;4939;52.00085300;4.17406100;2023-05-07T04:12:53;14.30;99.90
9800;DHT22;4939;52.00085300;4.17406100;2023-05-07T04:20:16;14.30;99.90
9800;DHT22;4939;52.00085300;4.17406100;2023-05-07T04:22:42;14.30;99.90
9800;DHT22;4939;52.00085300;4.17406100;2023-05-07T04:25:09;14.30;99.90
9800;DHT22;4939;52.00085300;4.17406100;2023-05-07T04:27:35;14.30;99.90
9800;DHT22;4939;52.00085300;4.17406100;2023-05-07T04:30:02;14.30;99.90
9800;DHT22;4939;52.00085300;4.17406100;2023-05-07T04:32:28;14.40;99.90
9800;DHT22;4939;52.00085300;4.17406100;2023-05-07T04:34:55;14.40;99.90
9800;DHT22;4939;52.00085300;4.17406100;2023-05-07T04:37:21;14.30;99.90
9800;DHT22;4939;52.00085300;4.17406100;2023-05-07T04:39:47;14.40;99.90
9800;DHT22;4939;52.00085300;4.17406100;2023-05-07T04:42:17;14.40;99.90
9800;DHT22;4939;52.00085300;4.17406100;2023-05-07T04:44:44;14.40;99.90
9800;DHT22;4939;52.00085300;4.17406100;2023-05-07T04:49:37;14.40;99.90
9800;DHT22;4939;52.00085300;4.17406100;2023-05-07T04:52:03;14.40;99.90
9800;DHT22;4939;52.00085300;4.17406100;2023-05-07T04:54:29;14.50;99.90
9800;DHT22;4939;52.00085300;4.17406100;2023-05-07T04:56:55;14.40;99.90
9800;DHT22;4939;52.00085300;4.17406100;2023-05-07T04:59:21;14.50;99.90
9800;DHT22;4939;52.00085300;4.17406100;2023-05-07T05:01:46;14.50;99.90
9800;DHT22;4939;52.00085300;4.17406100;2023-05-07T05:04:12;14.40;99.90
9800;DHT22;4939;52.00085300;4.17406100;2023-05-07T05:06:39;14.50;99.90
9800;DHT22;4939;52.00085300;4.17406100;2023-05-07T05:11:31;14.60;99.90
9800;DHT22;4939;52.00085300;4.17406100;2023-05-07T05:13:58;14.50;99.90
9800;DHT22;4939;52.00085300;4.17406100;2023-05-07T05:16:24;14.60;99.90
9800;DHT22;4939;52.00085300;4.17406100;2023-05-07T05:21:17;14.60;99.90
9800;DHT22;4939;52.00085300;4.17406100;2023-05-07T05:23:43;14.60;99.90
9800;DHT22;4939;52.00085300;4.17406100;2023-05-07T05:28:35;14.70;99.90
9800;DHT22;4939;52.00085300;4.17406100;2023-05-07T05:31:01;14.70;99.90
9800;DHT22;4939;52.00085300;4.17406100;2023-05-07T05:33:27;14.70;99.90
9800;DHT22;4939;52.00085300;4.17406100;2023-05-07T05:35:54;14.80;99.90
9800;DHT22;4939;52.00085300;4.17406100;2023-05-07T05:38:19;14.80;99.90
9800;DHT22;4939;52.00085300;4.17406100;2023-05-07T05:45:38;14.90;99.90
9800;DHT22;4939;52.00085300;4.17406100;2023-05-07T05:48:04;14.90;99.90
9800;DHT22;4939;52.00085300;4.17406100;2023-05-07T05:50:30;14.90;99.90
9800;DHT22;4939;52.00085300;4.17406100;2023-05-07T05:52:55;15.00;99.90
9800;DHT22;4939;52.00085300;4.17406100;2023-05-07T05:55:22;15.10;99.90
9800;DHT22;4939;52.00085300;4.17406100;2023-05-07T05:57:47;15.10;99.90
9800;DHT22;4939;52.00085300;4.17406100;2023-05-07T06:00:13;15.10;99.90
9800;DHT22;4939;52.00085300;4.17406100;2023-05-07T06:05:06;15.20;99.90
9800;DHT22;4939;52.00085300;4.17406100;2023-05-07T06:07:31;15.30;99.90
9800;DHT22;4939;52.00085300;4.17406100;2023-05-07T06:12:23;15.30;99.90
9800;DHT22;4939;52.00085300;4.17406100;2023-05-07T06:14:49;15.40;99.90
9800;DHT22;4939;52.00085300;4.17406100;2023-05-07T06:17:15;15.50;99.90
9800;DHT22;4939;52.00085300;4.17406100;2023-05-07T06:19:40;15.60;99.90
9800;DHT22;4939;52.00085300;4.17406100;2023-05-07T06:24:32;15.80;99.90
9800;DHT22;4939;52.00085300;4.17406100;2023-05-07T06:26:58;15.80;99.90
9800;DHT22;4939;52.00085300;4.17406100;2023-05-07T06:29:24;15.90;99.90
9800;DHT22;4939;52.00085300;4.17406100;2023-05-07T06:31:52;15.90;99.90
9800;DHT22;4939;52.00085300;4.17406100;2023-05-07T06:34:18;16.10;99.90
9800;DHT22;4939;52.00085300;4.17406100;2023-05-07T06:39:09;16.20;99.90
9800;DHT22;4939;52.00085300;4.17406100;2023-05-07T06:44:04;16.50;99.90
9800;DHT22;4939;52.00085300;4.17406100;2023-05-07T06:46:30;16.50;99.90
9800;DHT22;4939;52.00085300;4.17406100;2023-05-07T06:48:56;16.60;99.90
9800;DHT22;4939;52.00085300;4.17406100;2023-05-07T06:53:48;17.00;99.90
9800;DHT22;4939;52.00085300;4.17406100;2023-05-07T06:56:14;17.20;99.90
9800;DHT22;4939;52.00085300;4.17406100;2023-05-07T06:58:39;17.20;99.90
9800;DHT22;4939;52.00085300;4.17406100;2023-05-07T07:01:05;17.20;99.90
9800;DHT22;4939;52.00085300;4.17406100;2023-05-07T07:08:23;17.50;99.90
9800;DHT22;4939;52.00085300;4.17406100;2023-05-07T07:10:48;17.60;99.90
9800;DHT22;4939;52.00085300;4.17406100;2023-05-07T07:13:14;17.80;99.90
9800;DHT22;4939;52.00085300;4.17406100;2023-05-07T07:15:40;17.90;99.90
9800;DHT22;4939;52.00085300;4.17406100;2023-05-07T07:18:06;18.10;99.90
9800;DHT22;4939;52.00085300;4.17406100;2023-05-07T07:20:32;18.30;99.90
9800;DHT22;4939;52.00085300;4.17406100;2023-05-07T07:22:57;18.30;99.90
9800;DHT22;4939;52.00085300;4.17406100;2023-05-07T07:25:23;18.20;99.90
9800;DHT22;4939;52.00085300;4.17406100;2023-05-07T07:27:49;18.20;99.90
9800;DHT22;4939;52.00085300;4.17406100;2023-05-07T07:30:15;18.20;99.90
9800;DHT22;4939;52.00085300;4.17406100;2023-05-07T07:37:32;18.30;99.90
9800;DHT22;4939;52.00085300;4.17406100;2023-05-07T07:39:58;18.40;99.90
9800;DHT22;4939;52.00085300;4.17406100;2023-05-07T07:42:24;18.30;99.90
9800;DHT22;4939;52.00085300;4.17406100;2023-05-07T07:44:50;18.30;99.90
9800;DHT22;4939;52.00085300;4.17406100;2023-05-07T07:47:15;18.20;99.90
9800;DHT22;4939;52.00085300;4.17406100;2023-05-07T07:52:08;18.20;99.90
9800;DHT22;4939;52.00085300;4.17406100;2023-05-07T07:54:35;18.40;99.90
9800;DHT22;4939;52.00085300;4.17406100;2023-05-07T07:57:02;18.50;99.90
9800;DHT22;4939;52.00085300;4.17406100;2023-05-07T07:59:27;18.70;99.90
9800;DHT22;4939;52.00085300;4.17406100;2023-05-07T08:01:53;18.70;99.90
9800;DHT22;4939;52.00085300;4.17406100;2023-05-07T08:04:22;18.80;99.90
9800;DHT22;4939;52.00085300;4.17406100;2023-05-07T08:06:48;18.70;99.90
9800;DHT22;4939;52.00085300;4.17406100;2023-05-07T08:09:14;18.60;99.90
9800;DHT22;4939;52.00085300;4.17406100;2023-05-07T08:11:39;18.60;99.90
9800;DHT22;4939;52.00085300;4.17406100;2023-05-07T08:14:05;18.60;99.90
9800;DHT22;4939;52.00085300;4.17406100;2023-05-07T08:16:31;18.80;99.90
9800;DHT22;4939;52.00085300;4.17406100;2023-05-07T08:18:57;19.00;99.90
9800;DHT22;4939;52.00085300;4.17406100;2023-05-07T08:21:23;19.20;99.90
9800;DHT22;4939;52.00085300;4.17406100;2023-05-07T08:23:49;19.20;99.90
9800;DHT22;4939;52.00085300;4.17406100;2023-05-07T08:26:14;19.40;99.90
9800;DHT22;4939;52.00085300;4.17406100;2023-05-07T08:28:40;19.40;99.90
9800;DHT22;4939;52.00085300;4.17406100;2023-05-07T08:31:06;19.50;99.90
9800;DHT22;4939;52.00085300;4.17406100;2023-05-07T08:33:31;19.50;99.90
9800;DHT22;4939;52.00085300;4.17406100;2023-05-07T08:35:57;19.60;99.90
9800;DHT22;4939;52.00085300;4.17406100;2023-05-07T08:38:23;19.70;99.90
9800;DHT22;4939;52.00085300;4.17406100;2023-05-07T08:40:52;19.80;99.90
9800;DHT22;4939;52.00085300;4.17406100;2023-05-07T08:43:18;19.90;99.90
9800;DHT22;4939;52.00085300;4.17406100;2023-05-07T08:45:45;20.00;99.90
9800;DHT22;4939;52.00085300;4.17406100;2023-05-07T08:48:16;20.10;99.90
9800;DHT22;4939;52.00085300;4.17406100;2023-05-07T08:50:42;20.00;99.90
9800;DHT22;4939;52.00085300;4.17406100;2023-05-07T08:53:08;20.00;99.90
9800;DHT22;4939;52.00085300;4.17406100;2023-05-07T08:58:00;19.90;99.90
9800;DHT22;4939;52.00085300;4.17406100;2023-05-07T09:02:53;19.70;99.90
9800;DHT22;4939;52.00085300;4.17406100;2023-05-07T09:05:19;19.70;99.90
9800;DHT22;4939;52.00085300;4.17406100;2023-05-07T09:10:12;19.80;99.90
9800;DHT22;4939;52.00085300;4.17406100;2023-05-07T09:15:05;19.70;99.90
9800;DHT22;4939;52.00085300;4.17406100;2023-05-07T09:17:31;19.70;99.90
9800;DHT22;4939;52.00085300;4.17406100;2023-05-07T09:20:02;19.80;99.90
9800;DHT22;4939;52.00085300;4.17406100;2023-05-07T09:22:40;19.90;99.90
9800;DHT22;4939;52.00085300;4.17406100;2023-05-07T09:25:07;20.00;99.90
9800;DHT22;4939;52.00085300;4.17406100;2023-05-07T09:27:33;20.10;99.90
9800;DHT22;4939;52.00085300;4.17406100;2023-05-07T09:29:59;20.10;99.90
9800;DHT22;4939;52.00085300;4.17406100;2023-05-07T09:32:25;20.20;99.90
9800;DHT22;4939;52.00085300;4.17406100;2023-05-07T09:37:18;20.20;99.90
9800;DHT22;4939;52.00085300;4.17406100;2023-05-07T09:39:46;20.20;99.90
9800;DHT22;4939;52.00085300;4.17406100;2023-05-07T09:42:13;20.20;99.90
9800;DHT22;4939;52.00085300;4.17406100;2023-05-07T09:44:40;20.10;99.90
9800;DHT22;4939;52.00085300;4.17406100;2023-05-07T09:47:07;20.20;99.90
9800;DHT22;4939;52.00085300;4.17406100;2023-05-07T09:49:38;20.40;99.90
9800;DHT22;4939;52.00085300;4.17406100;2023-05-07T09:52:06;20.60;99.90
9800;DHT22;4939;52.00085300;4.17406100;2023-05-07T09:54:35;20.80;99.90
9800;DHT22;4939;52.00085300;4.17406100;2023-05-07T09:57:04;21.10;99.90
9800;DHT22;4939;52.00085300;4.17406100;2023-05-07T09:59:32;21.30;99.90
9800;DHT22;4939;52.00085300;4.17406100;2023-05-07T10:01:59;21.50;99.90
9800;DHT22;4939;52.00085300;4.17406100;2023-05-07T10:04:26;21.50;99.90
9800;DHT22;4939;52.00085300;4.17406100;2023-05-07T10:06:52;21.40;99.90
9800;DHT22;4939;52.00085300;4.17406100;2023-05-07T10:09:19;21.10;99.90
9800;DHT22;4939;52.00085300;4.17406100;2023-05-07T10:14:12;20.90;99.90
9800;DHT22;4939;52.00085300;4.17406100;2023-05-07T10:16:40;21.00;99.90
9800;DHT22;4939;52.00085300;4.17406100;2023-05-07T10:19:08;21.30;99.90
9800;DHT22;4939;52.00085300;4.17406100;2023-05-07T10:21:40;21.60;99.90
9800;DHT22;4939;52.00085300;4.17406100;2023-05-07T10:24:21;21.70;99.90
9800;DHT22;4939;52.00085300;4.17406100;2023-05-07T10:26:50;21.70;99.90
9800;DHT22;4939;52.00085300;4.17406100;2023-05-07T10:34:43;21.30;99.90
9800;DHT22;4939;52.00085300;4.17406100;2023-05-07T10:37:13;21.20;99.90
9800;DHT22;4939;52.00085300;4.17406100;2023-05-07T10:39:40;19.20;99.90
9800;DHT22;4939;52.00085300;4.17406100;2023-05-07T10:42:13;21.30;99.90
9800;DHT22;4939;52.00085300;4.17406100;2023-05-07T10:44:39;21.30;99.90
9800;DHT22;4939;52.00085300;4.17406100;2023-05-07T10:47:10;21.50;99.90
9800;DHT22;4939;52.00085300;4.17406100;2023-05-07T10:52:22;21.50;99.90
9800;DHT22;4939;52.00085300;4.17406100;2023-05-07T10:57:43;21.20;99.90
9800;DHT22;4939;52.00085300;4.17406100;2023-05-07T11:05:25;19.80;99.90
9800;DHT22;4939;52.00085300;4.17406100;2023-05-07T11:08:01;19.40;99.90
9800;DHT22;4939;52.00085300;4.17406100;2023-05-07T11:13:15;18.80;99.90
9800;DHT22;4939;52.00085300;4.17406100;2023-05-07T11:15:43;18.80;99.90
9800;DHT22;4939;52.00085300;4.17406100;2023-05-07T11:18:11;18.60;99.90
9800;DHT22;4939;52.00085300;4.17406100;2023-05-07T11:20:57;18.30;99.90
9800;DHT22;4939;52.00085300;4.17406100;2023-05-07T11:26:09;18.20;99.90
9800;DHT22;4939;52.00085300;4.17406100;2023-05-07T11:28:40;18.20;99.90
9800;DHT22;4939;52.00085300;4.17406100;2023-05-07T11:31:06;18.10;99.90
9800;DHT22;4939;52.00085300;4.17406100;2023-05-07T11:33:33;18.10;99.90
9800;DHT22;4939;52.00085300;4.17406100;2023-05-07T11:36:05;18.20;99.90
9800;DHT22;4939;52.00085300;4.17406100;2023-05-07T11:38:37;18.20;99.90
9800;DHT22;4939;52.00085300;4.17406100;2023-05-07T11:41:03;18.10;99.90
9800;DHT22;4939;52.00085300;4.17406100;2023-05-07T11:43:31;18.30;99.90
9800;DHT22;4939;52.00085300;4.17406100;2023-05-07T11:46:11;18.50;99.90
9800;DHT22;4939;52.00085300;4.17406100;2023-05-07T11:48:38;18.50;99.90
9800;DHT22;4939;52.00085300;4.17406100;2023-05-07T11:51:05;18.60;99.90
9800;DHT22;4939;52.00085300;4.17406100;2023-05-07T11:53:41;18.40;99.90
9800;DHT22;4939;52.00085300;4.17406100;2023-05-07T11:56:14;18.20;99.90
9800;DHT22;4939;52.00085300;4.17406100;2023-05-07T11:58:41;18.30;99.90
9800;DHT22;4939;52.00085300;4.17406100;2023-05-07T12:01:08;18.40;99.90
9800;DHT22;4939;52.00085300;4.17406100;2023-05-07T12:03:36;18.30;99.90
9800;DHT22;4939;52.00085300;4.17406100;2023-05-07T12:06:05;18.30;99.90
9800;DHT22;4939;52.00085300;4.17406100;2023-05-07T12:08:31;18.10;99.90
9800;DHT22;4939;52.00085300;4.17406100;2023-05-07T12:10:57;17.90;99.90
9800;DHT22;4939;52.00085300;4.17406100;2023-05-07T12:13:24;17.80;99.90
9800;DHT22;4939;52.00085300;4.17406100;2023-05-07T12:15:55;17.70;99.90
9800;DHT22;4939;52.00085300;4.17406100;2023-05-07T12:18:22;17.60;99.90
9800;DHT22;4939;52.00085300;4.17406100;2023-05-07T12:20:48;17.50;99.90
9800;DHT22;4939;52.00085300;4.17406100;2023-05-07T12:23:15;17.60;99.90
9800;DHT22;4939;52.00085300;4.17406100;2023-05-07T12:25:42;17.70;99.90
9800;DHT22;4939;52.00085300;4.17406100;2023-05-07T12:28:18;17.90;99.90
9800;DHT22;4939;52.00085300;4.17406100;2023-05-07T12:30:48;18.10;99.90
9800;DHT22;4939;52.00085300;4.17406100;2023-05-07T12:33:24;18.30;99.90
9800;DHT22;4939;52.00085300;4.17406100;2023-05-07T12:35:50;18.40;99.90
9800;DHT22;4939;52.00085300;4.17406100;2023-05-07T12:38:17;18.50;99.90
9800;DHT22;4939;52.00085300;4.17406100;2023-05-07T12:40:52;18.50;99.90
9800;DHT22;4939;52.00085300;4.17406100;2023-05-07T12:43:20;18.70;99.90
9800;DHT22;4939;52.00085300;4.17406100;2023-05-07T12:45:49;18.90;99.90
9800;DHT22;4939;52.00085300;4.17406100;2023-05-07T12:48:14;19.30;99.90
9800;DHT22;4939;52.00085300;4.17406100;2023-05-07T12:50:40;19.30;99.90
9800;DHT22;4939;52.00085300;4.17406100;2023-05-07T12:53:07;19.40;99.90
9800;DHT22;4939;52.00085300;4.17406100;2023-05-07T12:55:44;19.60;99.90
9800;DHT22;4939;52.00085300;4.17406100;2023-05-07T12:58:29;19.80;99.90
9800;DHT22;4939;52.00085300;4.17406100;2023-05-07T13:00:57;20.00;99.90
9800;DHT22;4939;52.00085300;4.17406100;2023-05-07T13:03:31;20.10;99.90
9800;DHT22;4939;52.00085300;4.17406100;2023-05-07T13:06:05;20.20;99.90
9800;DHT22;4939;52.00085300;4.17406100;2023-05-07T13:08:36;19.80;99.90
9800;DHT22;4939;52.00085300;4.17406100;2023-05-07T13:11:04;19.70;99.90
9800;DHT22;4939;52.00085300;4.17406100;2023-05-07T13:13:35;19.70;99.90
9800;DHT22;4939;52.00085300;4.17406100;2023-05-07T13:16:01;19.50;99.90
9800;DHT22;4939;52.00085300;4.17406100;2023-05-07T13:18:30;19.50;99.90
9800;DHT22;4939;52.00085300;4.17406100;2023-05-07T13:20:56;19.60;99.90
9800;DHT22;4939;52.00085300;4.17406100;2023-05-07T13:23:22;19.50;99.90
9800;DHT22;4939;52.00085300;4.17406100;2023-05-07T13:28:14;19.50;99.90
9800;DHT22;4939;52.00085300;4.17406100;2023-05-07T13:30:40;19.50;99.90
9800;DHT22;4939;52.00085300;4.17406100;2023-05-07T13:33:06;19.70;99.90
9800;DHT22;4939;52.00085300;4.17406100;2023-05-07T13:35:33;19.90;99.90
9800;DHT22;4939;52.00085300;4.17406100;2023-05-07T13:37:58;20.10;99.90
9800;DHT22;4939;52.00085300;4.17406100;2023-05-07T13:40:25;20.10;99.90
9800;DHT22;4939;52.00085300;4.17406100;2023-05-07T13:42:54;19.90;99.90
9800;DHT22;4939;52.00085300;4.17406100;2023-05-07T13:47:46;20.20;99.90
9800;DHT22;4939;52.00085300;4.17406100;2023-05-07T13:50:12;20.50;99.90
9800;DHT22;4939;52.00085300;4.17406100;2023-05-07T13:52:43;20.70;99.90
9800;DHT22;4939;52.00085300;4.17406100;2023-05-07T13:55:11;20.50;99.90
9800;DHT22;4939;52.00085300;4.17406100;2023-05-07T14:00:04;20.30;99.90
9800;DHT22;4939;52.00085300;4.17406100;2023-05-07T14:02:31;20.50;99.90
9800;DHT22;4939;52.00085300;4.17406100;2023-05-07T14:04:57;20.20;99.90
9800;DHT22;4939;52.00085300;4.17406100;2023-05-07T14:07:22;20.00;99.90
9800;DHT22;4939;52.00085300;4.17406100;2023-05-07T14:12:14;19.80;99.90
9800;DHT22;4939;52.00085300;4.17406100;2023-05-07T14:17:06;19.70;99.90
9800;DHT22;4939;52.00085300;4.17406100;2023-05-07T14:19:32;19.70;99.90
9800;DHT22;4939;52.00085300;4.17406100;2023-05-07T14:21:57;19.80;99.90
9800;DHT22;4939;52.00085300;4.17406100;2023-05-07T14:24:24;20.20;99.90
9800;DHT22;4939;52.00085300;4.17406100;2023-05-07T14:26:50;20.10;99.90
9800;DHT22;4939;52.00085300;4.17406100;2023-05-07T14:29:16;20.20;99.90
9800;DHT22;4939;52.00085300;4.17406100;2023-05-07T14:31:45;20.10;99.90
9800;DHT22;4939;52.00085300;4.17406100;2023-05-07T14:34:11;19.80;99.90
9800;DHT22;4939;52.00085300;4.17406100;2023-05-07T14:39:03;20.00;99.90
9800;DHT22;4939;52.00085300;4.17406100;2023-05-07T14:43:57;20.50;99.90
9800;DHT22;4939;52.00085300;4.17406100;2023-05-07T14:46:24;20.50;99.90
9800;DHT22;4939;52.00085300;4.17406100;2023-05-07T14:51:17;20.30;99.90
9800;DHT22;4939;52.00085300;4.17406100;2023-05-07T14:53:43;20.10;99.90
9800;DHT22;4939;52.00085300;4.17406100;2023-05-07T14:56:09;20.20;99.90
9800;DHT22;4939;52.00085300;4.17406100;2023-05-07T14:58:34;20.40;99.90
9800;DHT22;4939;52.00085300;4.17406100;2023-05-07T15:03:27;20.40;99.90
9800;DHT22;4939;52.00085300;4.17406100;2023-05-07T15:10:45;20.50;99.90
9800;DHT22;4939;52.00085300;4.17406100;2023-05-07T15:13:11;20.60;99.90
9800;DHT22;4939;52.00085300;4.17406100;2023-05-07T15:15:39;20.90;99.90
9800;DHT22;4939;52.00085300;4.17406100;2023-05-07T15:18:04;20.70;99.90
9800;DHT22;4939;52.00085300;4.17406100;2023-05-07T15:20:30;19.90;99.90
9800;DHT22;4939;52.00085300;4.17406100;2023-05-07T15:22:56;19.80;99.90
9800;DHT22;4939;52.00085300;4.17406100;2023-05-07T15:25:22;19.80;99.90
9800;DHT22;4939;52.00085300;4.17406100;2023-05-07T15:27:48;20.00;99.90
9800;DHT22;4939;52.00085300;4.17406100;2023-05-07T15:30:14;19.90;99.90
9800;DHT22;4939;52.00085300;4.17406100;2023-05-07T15:32:43;20.00;99.90
9800;DHT22;4939;52.00085300;4.17406100;2023-05-07T15:35:09;20.10;99.90
9800;DHT22;4939;52.00085300;4.17406100;2023-05-07T15:37:35;19.60;99.90
9800;DHT22;4939;52.00085300;4.17406100;2023-05-07T15:42:35;18.90;99.90
9800;DHT22;4939;52.00085300;4.17406100;2023-05-07T15:45:01;18.70;99.90
9800;DHT22;4939;52.00085300;4.17406100;2023-05-07T15:49:53;18.40;99.90
9800;DHT22;4939;52.00085300;4.17406100;2023-05-07T15:52:18;18.60;99.90
9800;DHT22;4939;52.00085300;4.17406100;2023-05-07T15:54:45;19.10;99.90
9800;DHT22;4939;52.00085300;4.17406100;2023-05-07T15:57:11;19.50;99.90
9800;DHT22;4939;52.00085300;4.17406100;2023-05-07T15:59:37;19.50;99.90
9800;DHT22;4939;52.00085300;4.17406100;2023-05-07T16:02:02;19.50;99.90
9800;DHT22;4939;52.00085300;4.17406100;2023-05-07T16:04:29;19.40;99.90